Time,TemperatureF,DewpointF,PressureIn,WindDirection,WindDirectionDegrees,WindSpeedMPH,WindSpeedGustMPH,Humidity,HourlyPrecipIn,Conditions,Clouds,dailyrainin,SoftwareType,DateUTC
2013-03-24 09:15:00,69.4,67.0,29.94,SSW,202,0.0,-999.0,92,-99.99,,,0.00,Acu-Link.com,2013-03-24 19:15:00,
2013-03-24 09:30:00,69.4,67.0,29.95,South,180,0.0,-999.0,92,-99.99,,,0.00,Acu-Link.com,2013-03-24 19:30:00,
2013-03-24 09:46:00,69.3,67.8,29.96,WSW,247,0.0,-999.0,95,-99.99,,,0.01,Acu-Link.com,2013-03-24 19:46:00,
2013-03-24 10:16:00,69.1,67.9,29.96,North,0,1.1,-999.0,96,-99.99,,,0.04,Acu-Link.com,2013-03-24 20:16:00,
2013-03-24 10:31:00,68.5,67.0,29.95,NNW,337,0.0,-999.0,95,-99.99,,,0.05,Acu-Link.com,2013-03-24 20:31:00,
2013-03-24 14:40:00,72.0,69.2,29.86,SE,135,0.0,-999.0,91,-99.99,,,0.07,Acu-Link.com,2013-03-25 00:40:00,
2013-03-24 14:56:00,71.4,68.6,29.84,SSW,202,0.0,-999.0,91,-99.99,,,0.07,Acu-Link.com,2013-03-25 00:56:00,
2013-03-24 15:41:00,70.0,68.2,29.83,South,180,0.0,-999.0,94,-99.99,,,0.08,Acu-Link.com,2013-03-25 01:41:00,
2013-03-24 15:57:00,69.4,67.6,29.83,South,180,1.7,-999.0,94,-99.99,,,0.10,Acu-Link.com,2013-03-25 01:57:00,
2013-03-24 16:12:00,69.4,67.6,29.82,SSW,202,0.0,-999.0,94,-99.99,,,0.10,Acu-Link.com,2013-03-25 02:12:00,
2013-03-24 16:42:00,69.4,67.6,29.82,ENE,67,2.2,-999.0,94,-99.99,,,0.10,Acu-Link.com,2013-03-25 02:42:00,
2013-03-24 16:58:00,69.4,67.3,29.81,North,0,4.2,-999.0,93,-99.99,,,0.10,Acu-Link.com,2013-03-25 02:58:00,
2013-03-24 17:13:00,69.8,67.7,29.81,ESE,112,1.7,-999.0,93,-99.99,,,0.10,Acu-Link.com,2013-03-25 03:13:00,
2013-03-24 17:28:00,69.8,67.7,29.81,South,180,0.0,-999.0,93,-99.99,,,0.10,Acu-Link.com,2013-03-25 03:28:00,
2013-03-24 21:24:00,65.5,65.2,29.93,NNE,22,0.0,-999.0,99,-99.99,,,0.10,Acu-Link.com,2013-03-25 07:24:00,
2013-03-24 21:39:00,64.9,64.6,29.92,NNE,22,1.7,-999.0,99,-99.99,,,0.10,Acu-Link.com,2013-03-25 07:39:00,
2013-03-24 21:55:00,64.8,64.5,29.92,ESE,112,0.0,-999.0,99,-99.99,,,0.10,Acu-Link.com,2013-03-25 07:55:00,
2013-03-24 22:10:00,64.6,64.3,29.92,ESE,112,1.1,-999.0,99,-99.99,,,0.10,Acu-Link.com,2013-03-25 08:10:00,
2013-03-24 22:26:00,64.4,64.1,29.93,ESE,112,0.0,-999.0,99,-99.99,,,0.10,Acu-Link.com,2013-03-25 08:26:00,
2013-03-24 22:41:00,64.2,63.9,29.92,ESE,112,0.0,-999.0,99,-99.99,,,0.10,Acu-Link.com,2013-03-25 08:41:00,
2013-03-24 22:56:00,64.2,63.9,29.92,South,180,0.0,-999.0,99,-99.99,,,0.10,Acu-Link.com,2013-03-25 08:56:00,
2013-03-24 23:26:00,64.0,63.7,29.92,SE,135,0.0,-999.0,99,-99.99,,,0.10,Acu-Link.com,2013-03-25 09:26:00,
2013-03-24 23:41:00,63.9,63.6,29.92,SE,135,0.0,-999.0,99,-99.99,,,0.10,Acu-Link.com,2013-03-25 09:41:00,